FIN7PW LPMA-EFHK
Flight info
| Callsign | FIN7PW |
|---|---|
| Flight time | 5h 16m |
| Altitude | 30000 |
| Route | DEGUN DCT ROLAR DCT TUNAV/N0453F320 DCT IBIDO DCT DEMOS DCT LOTEE DCT AZFIC UN741 MOKOR UN873 OBATO/N0449F340 UN873 BAZOS DCT BELDI DCT VEKIN DCT ADUTO N873 VICOT/N0452F330 DCT DOSUR DCT RASMU DCT ROGMI DCT ALAMI DCT OKEVU DCT EVADI Y370 DIVAM |
| Aircraft | A321/M-SDE3FGHIRWY/LB1 |
Departure
| Time | 2026-04-21 10:48 |
|---|---|
| Airport | Cristiano Ronaldo International Airport (LPMA) |
Arrival
| Time | 2026-04-21 16:05 |
|---|---|
| Airport | Helsinki Vantaa Airport (EFHK) |
| Time | Latitude | Longitude | Altitude | Speed | Heading |
|---|---|---|---|---|---|
| 2026-04-21 10:10 | 32.69440 | -16.77555 | 171 ft | 0 kts | 138° |
| 2026-04-21 10:37 | 32.69457 | -16.77574 | 169 ft | 4 kts | 138° |
| 2026-04-21 10:37 | 32.69474 | -16.77590 | 169 ft | 4 kts | 155° |
| 2026-04-21 10:37 | 32.69497 | -16.77593 | 169 ft | 4 kts | 208° |
| 2026-04-21 10:38 | 32.69516 | -16.77575 | 169 ft | 4 kts | 226° |
| 2026-04-21 10:38 | 32.69526 | -16.77562 | 169 ft | 0 kts | 226° |
| 2026-04-21 10:41 | 32.69519 | -16.77571 | 169 ft | 5 kts | 226° |
| 2026-04-21 10:41 | 32.69493 | -16.77604 | 169 ft | 6 kts | 226° |
| 2026-04-21 10:41 | 32.69466 | -16.77638 | 169 ft | 6 kts | 226° |
| 2026-04-21 10:42 | 32.69431 | -16.77680 | 169 ft | 8 kts | 227° |
| 2026-04-21 10:42 | 32.69393 | -16.77729 | 169 ft | 8 kts | 227° |
| 2026-04-21 10:42 | 32.69353 | -16.77776 | 169 ft | 8 kts | 225° |
| 2026-04-21 10:42 | 32.69314 | -16.77824 | 169 ft | 8 kts | 225° |
| 2026-04-21 10:43 | 32.69290 | -16.77870 | 169 ft | 0 kts | 261° |
| 2026-04-21 10:44 | 32.69285 | -16.77883 | 169 ft | 5 kts | 247° |
| 2026-04-21 10:45 | 32.69278 | -16.77910 | 173 ft | 3 kts | 259° |
| 2026-04-21 10:45 | 32.69273 | -16.78006 | 176 ft | 12 kts | 263° |
| 2026-04-21 10:45 | 32.69225 | -16.78098 | 176 ft | 16 kts | 227° |
| 2026-04-21 10:45 | 32.69134 | -16.78212 | 176 ft | 18 kts | 222° |
| 2026-04-21 10:46 | 32.69048 | -16.78310 | 176 ft | 13 kts | 224° |
| 2026-04-21 10:46 | 32.69027 | -16.78340 | 176 ft | 2 kts | 240° |
| 2026-04-21 10:46 | 32.69032 | -16.78345 | 176 ft | 1 kts | 317° |
| 2026-04-21 10:46 | 32.69038 | -16.78340 | 176 ft | 1 kts | 38° |
| 2026-04-21 10:47 | 32.69038 | -16.78333 | 176 ft | 1 kts | 75° |
| 2026-04-21 10:47 | 32.69042 | -16.78327 | 176 ft | 0 kts | 56° |
| 2026-04-21 10:47 | 32.69057 | -16.78310 | 176 ft | 22 kts | 45° |
| 2026-04-21 10:48 | 32.69359 | -16.77959 | 176 ft | 96 kts | 45° |
| 2026-04-21 10:48 | 32.69948 | -16.77275 | 199 ft | 136 kts | 44° |
| 2026-04-21 10:48 | 32.70728 | -16.76359 | 412 ft | 166 kts | 43° |
| 2026-04-21 10:48 | 32.71456 | -16.75344 | 1292 ft | 159 kts | 53° |
| 2026-04-21 10:49 | 32.71857 | -16.74166 | 2032 ft | 152 kts | 73° |
| 2026-04-21 10:49 | 32.71915 | -16.72777 | 2012 ft | 189 kts | 92° |
| 2026-04-21 10:49 | 32.71526 | -16.71179 | 2134 ft | 214 kts | 114° |
| 2026-04-21 10:49 | 32.70752 | -16.69583 | 2312 ft | 231 kts | 119° |
| 2026-04-21 10:50 | 32.69878 | -16.67889 | 2439 ft | 251 kts | 119° |
| 2026-04-21 10:50 | 32.68963 | -16.66017 | 2590 ft | 272 kts | 116° |
| 2026-04-21 10:50 | 32.68096 | -16.63986 | 3083 ft | 278 kts | 113° |
| 2026-04-21 10:50 | 32.67304 | -16.61881 | 3664 ft | 281 kts | 108° |
| 2026-04-21 10:51 | 32.66986 | -16.59615 | 4232 ft | 279 kts | 84° |
| 2026-04-21 10:51 | 32.67437 | -16.57406 | 4792 ft | 276 kts | 59° |
| 2026-04-21 10:51 | 32.68574 | -16.55600 | 5329 ft | 274 kts | 41° |
| 2026-04-21 10:51 | 32.69922 | -16.53989 | 5891 ft | 277 kts | 42° |
| 2026-04-21 10:52 | 32.71284 | -16.52355 | 6433 ft | 280 kts | 43° |
| 2026-04-21 10:52 | 32.72663 | -16.50691 | 6960 ft | 284 kts | 43° |
| 2026-04-21 10:52 | 32.74057 | -16.49007 | 7477 ft | 287 kts | 43° |
| 2026-04-21 10:52 | 32.75464 | -16.47303 | 7982 ft | 291 kts | 43° |
| 2026-04-21 10:53 | 32.76875 | -16.45591 | 8432 ft | 296 kts | 43° |
| 2026-04-21 10:53 | 32.78324 | -16.43829 | 8921 ft | 300 kts | 44° |
| 2026-04-21 10:53 | 32.79791 | -16.42044 | 9406 ft | 304 kts | 44° |
| 2026-04-21 10:53 | 32.81278 | -16.40235 | 9885 ft | 308 kts | 44° |
| 2026-04-21 10:54 | 32.82802 | -16.38381 | 10129 ft | 322 kts | 44° |
| 2026-04-21 10:54 | 32.84409 | -16.36429 | 10270 ft | 338 kts | 44° |
| 2026-04-21 10:54 | 32.86094 | -16.34382 | 10406 ft | 354 kts | 44° |
| 2026-04-21 10:54 | 32.87854 | -16.32246 | 10549 ft | 369 kts | 44° |
| 2026-04-21 10:55 | 32.89683 | -16.30022 | 10690 ft | 383 kts | 44° |
| 2026-04-21 10:55 | 32.91579 | -16.27716 | 10834 ft | 397 kts | 44° |
| 2026-04-21 10:55 | 32.93541 | -16.25326 | 11025 ft | 409 kts | 44° |
| 2026-04-21 10:55 | 32.95534 | -16.22891 | 11411 ft | 414 kts | 44° |
| 2026-04-21 10:56 | 32.97551 | -16.20421 | 11840 ft | 417 kts | 44° |
| 2026-04-21 10:56 | 32.99583 | -16.17929 | 12280 ft | 421 kts | 44° |
| 2026-04-21 10:56 | 33.01635 | -16.15415 | 12732 ft | 425 kts | 44° |
| 2026-04-21 10:56 | 33.03701 | -16.12885 | 13188 ft | 428 kts | 44° |
| 2026-04-21 10:57 | 33.05786 | -16.10333 | 13678 ft | 430 kts | 44° |
| 2026-04-21 10:57 | 33.07878 | -16.07773 | 14134 ft | 433 kts | 44° |
| 2026-04-21 10:57 | 33.09983 | -16.05192 | 14596 ft | 435 kts | 44° |
| 2026-04-21 10:57 | 33.12099 | -16.02596 | 15059 ft | 438 kts | 44° |
| 2026-04-21 10:58 | 33.14230 | -15.99983 | 15500 ft | 441 kts | 43° |
| 2026-04-21 10:58 | 33.16371 | -15.97350 | 15907 ft | 443 kts | 44° |
| 2026-04-21 10:58 | 33.18523 | -15.94700 | 16319 ft | 446 kts | 44° |
| 2026-04-21 10:58 | 33.20687 | -15.92031 | 16701 ft | 449 kts | 44° |
| 2026-04-21 10:59 | 33.22867 | -15.89345 | 17083 ft | 451 kts | 44° |
| 2026-04-21 10:59 | 33.25054 | -15.86645 | 17457 ft | 454 kts | 44° |
| 2026-04-21 10:59 | 33.27252 | -15.83927 | 17818 ft | 455 kts | 43° |
| 2026-04-21 10:59 | 33.29458 | -15.81199 | 18163 ft | 458 kts | 43° |
| 2026-04-21 11:00 | 33.31678 | -15.78452 | 18497 ft | 460 kts | 43° |
| 2026-04-21 11:00 | 33.33910 | -15.75695 | 18842 ft | 462 kts | 43° |
| 2026-04-21 11:00 | 33.36150 | -15.72924 | 19191 ft | 464 kts | 43° |
| 2026-04-21 11:00 | 33.38400 | -15.70141 | 19540 ft | 466 kts | 43° |
| 2026-04-21 11:01 | 33.40729 | -15.67441 | 19881 ft | 465 kts | 37° |
| 2026-04-21 11:01 | 33.43302 | -15.65192 | 20193 ft | 463 kts | 28° |
| 2026-04-21 11:01 | 33.46148 | -15.63398 | 20496 ft | 463 kts | 21° |
| 2026-04-21 11:02 | 33.52000 | -15.60114 | 21133 ft | 466 kts | 22° |
| 2026-04-21 11:02 | 33.54938 | -15.58455 | 21422 ft | 468 kts | 22° |
| 2026-04-21 11:02 | 33.57883 | -15.56788 | 21720 ft | 469 kts | 22° |
| 2026-04-21 11:02 | 33.60836 | -15.55111 | 22013 ft | 470 kts | 22° |
| 2026-04-21 11:03 | 33.63802 | -15.53424 | 22285 ft | 472 kts | 22° |
| 2026-04-21 11:03 | 33.66774 | -15.51730 | 22557 ft | 474 kts | 22° |
| 2026-04-21 11:03 | 33.69757 | -15.50026 | 22820 ft | 475 kts | 22° |
| 2026-04-21 11:03 | 33.72746 | -15.48319 | 23075 ft | 477 kts | 22° |
| 2026-04-21 11:04 | 33.75750 | -15.46606 | 23336 ft | 478 kts | 22° |
| 2026-04-21 11:04 | 33.78763 | -15.44890 | 23581 ft | 480 kts | 22° |
| 2026-04-21 11:04 | 33.81787 | -15.43168 | 23833 ft | 481 kts | 22° |
| 2026-04-21 11:04 | 33.84819 | -15.41441 | 24089 ft | 483 kts | 22° |
| 2026-04-21 11:05 | 33.87863 | -15.39702 | 24331 ft | 485 kts | 22° |
| 2026-04-21 11:05 | 33.90893 | -15.37965 | 24598 ft | 486 kts | 22° |
| 2026-04-21 11:05 | 33.93963 | -15.36204 | 24929 ft | 484 kts | 22° |
| 2026-04-21 11:05 | 33.96995 | -15.34465 | 25334 ft | 482 kts | 22° |
| 2026-04-21 11:06 | 34.00016 | -15.32731 | 25731 ft | 479 kts | 22° |
| 2026-04-21 11:06 | 34.03015 | -15.31010 | 26123 ft | 476 kts | 21° |
| 2026-04-21 11:06 | 34.06005 | -15.29295 | 26449 ft | 475 kts | 21° |
| 2026-04-21 11:06 | 34.08952 | -15.27607 | 26788 ft | 474 kts | 21° |
| 2026-04-21 11:07 | 34.11923 | -15.25902 | 27146 ft | 472 kts | 21° |
| 2026-04-21 11:07 | 34.14881 | -15.24200 | 27503 ft | 470 kts | 21° |
| 2026-04-21 11:07 | 34.17831 | -15.22499 | 27835 ft | 469 kts | 21° |
| 2026-04-21 11:07 | 34.20765 | -15.20797 | 28161 ft | 468 kts | 21° |
| 2026-04-21 11:08 | 34.23657 | -15.19006 | 28475 ft | 468 kts | 23° |
| 2026-04-21 11:08 | 34.26504 | -15.17093 | 28774 ft | 468 kts | 25° |
| 2026-04-21 11:08 | 34.29310 | -15.15102 | 29081 ft | 467 kts | 26° |
| 2026-04-21 11:08 | 34.32096 | -15.13079 | 29371 ft | 467 kts | 26° |
| 2026-04-21 11:09 | 34.34875 | -15.11061 | 29662 ft | 466 kts | 26° |
| 2026-04-21 11:09 | 34.37662 | -15.09063 | 29877 ft | 466 kts | 25° |
| 2026-04-21 11:09 | 34.43270 | -15.05122 | 29934 ft | 467 kts | 25° |
| 2026-04-21 11:10 | 34.48913 | -15.01192 | 29935 ft | 469 kts | 25° |
| 2026-04-21 11:10 | 34.54581 | -14.97234 | 29934 ft | 471 kts | 25° |
| 2026-04-21 11:11 | 34.60265 | -14.93244 | 29933 ft | 473 kts | 26° |
| 2026-04-21 11:11 | 34.65970 | -14.89219 | 29934 ft | 475 kts | 26° |
| 2026-04-21 11:12 | 34.71683 | -14.85189 | 29929 ft | 475 kts | 26° |
| 2026-04-21 11:12 | 34.77407 | -14.81157 | 29916 ft | 475 kts | 26° |
| 2026-04-21 11:13 | 34.83137 | -14.77104 | 29907 ft | 477 kts | 26° |
| 2026-04-21 11:13 | 34.88843 | -14.73064 | 29903 ft | 478 kts | 26° |
| 2026-04-21 11:14 | 34.94605 | -14.68978 | 29900 ft | 480 kts | 26° |
| 2026-04-21 11:14 | 35.00375 | -14.64870 | 29899 ft | 481 kts | 27° |
| 2026-04-21 11:15 | 35.06168 | -14.60754 | 29900 ft | 483 kts | 27° |
| 2026-04-21 11:15 | 35.11984 | -14.56628 | 29901 ft | 484 kts | 27° |
| 2026-04-21 11:16 | 35.17807 | -14.52461 | 29893 ft | 486 kts | 27° |
| 2026-04-21 11:16 | 35.23647 | -14.48271 | 29891 ft | 487 kts | 27° |
| 2026-04-21 11:17 | 35.29501 | -14.44072 | 29889 ft | 489 kts | 27° |
| 2026-04-21 11:17 | 35.35390 | -14.39861 | 29885 ft | 491 kts | 28° |
| 2026-04-21 11:18 | 35.40343 | -14.36305 | 29887 ft | 493 kts | 28° |
| 2026-04-21 11:18 | 35.46267 | -14.32037 | 29881 ft | 495 kts | 28° |
| 2026-04-21 11:19 | 35.52177 | -14.27771 | 29881 ft | 497 kts | 28° |
| 2026-04-21 11:19 | 35.58158 | -14.23458 | 29881 ft | 499 kts | 29° |
| 2026-04-21 11:20 | 35.64157 | -14.19118 | 29878 ft | 502 kts | 29° |
| 2026-04-21 11:20 | 35.70174 | -14.14751 | 29878 ft | 503 kts | 30° |
| 2026-04-21 11:21 | 35.76221 | -14.10358 | 29882 ft | 505 kts | 30° |
| 2026-04-21 11:21 | 35.82284 | -14.05944 | 29883 ft | 507 kts | 30° |
| 2026-04-21 11:22 | 35.88373 | -14.01517 | 29877 ft | 509 kts | 30° |
| 2026-04-21 11:22 | 35.94466 | -13.97071 | 29884 ft | 509 kts | 30° |
| 2026-04-21 11:23 | 36.00565 | -13.92600 | 29888 ft | 510 kts | 30° |
| 2026-04-21 11:23 | 36.06671 | -13.88121 | 29893 ft | 510 kts | 30° |
| 2026-04-21 11:24 | 36.12777 | -13.83638 | 29899 ft | 511 kts | 30° |
| 2026-04-21 11:24 | 36.18888 | -13.79147 | 29897 ft | 510 kts | 30° |
| 2026-04-21 11:25 | 36.24988 | -13.74652 | 29890 ft | 510 kts | 30° |
| 2026-04-21 11:25 | 36.31085 | -13.70156 | 29879 ft | 510 kts | 30° |
| 2026-04-21 11:26 | 36.37193 | -13.65649 | 29885 ft | 511 kts | 30° |
| 2026-04-21 11:26 | 36.43303 | -13.61120 | 29885 ft | 512 kts | 31° |
| 2026-04-21 11:27 | 36.49410 | -13.56566 | 29885 ft | 512 kts | 31° |
| 2026-04-21 11:27 | 36.55524 | -13.52029 | 29883 ft | 512 kts | 31° |
| 2026-04-21 11:28 | 36.61653 | -13.47479 | 29884 ft | 513 kts | 31° |
| 2026-04-21 11:28 | 36.67774 | -13.42915 | 29881 ft | 513 kts | 31° |
| 2026-04-21 11:29 | 36.73893 | -13.38326 | 29871 ft | 513 kts | 31° |
| 2026-04-21 11:29 | 36.79966 | -13.33778 | 29869 ft | 512 kts | 31° |
| 2026-04-21 11:30 | 36.86123 | -13.29165 | 29861 ft | 513 kts | 31° |
| 2026-04-21 11:30 | 36.92196 | -13.24597 | 29855 ft | 514 kts | 31° |
| 2026-04-21 11:31 | 36.98315 | -13.19984 | 29853 ft | 514 kts | 31° |
| 2026-04-21 11:31 | 37.04437 | -13.15351 | 29853 ft | 514 kts | 32° |
| 2026-04-21 11:32 | 37.10559 | -13.10706 | 29850 ft | 515 kts | 32° |
| 2026-04-21 11:32 | 37.16693 | -13.06073 | 29832 ft | 515 kts | 32° |
| 2026-04-21 11:33 | 37.22822 | -13.01431 | 29829 ft | 514 kts | 32° |
| 2026-04-21 11:33 | 37.28943 | -12.96775 | 29825 ft | 515 kts | 32° |
| 2026-04-21 11:34 | 37.35059 | -12.92107 | 29822 ft | 514 kts | 32° |
| 2026-04-21 11:34 | 37.41172 | -12.87439 | 29817 ft | 514 kts | 32° |
| 2026-04-21 11:35 | 37.47287 | -12.82765 | 29816 ft | 514 kts | 32° |
| 2026-04-21 11:35 | 37.53405 | -12.78076 | 29807 ft | 515 kts | 32° |
| 2026-04-21 11:36 | 37.59529 | -12.73375 | 29814 ft | 516 kts | 32° |
| 2026-04-21 11:36 | 37.65648 | -12.68661 | 29823 ft | 515 kts | 32° |
| 2026-04-21 11:37 | 37.71768 | -12.63938 | 29826 ft | 515 kts | 32° |
| 2026-04-21 11:37 | 37.77884 | -12.59212 | 29827 ft | 515 kts | 32° |
| 2026-04-21 11:38 | 37.83996 | -12.54480 | 29822 ft | 515 kts | 32° |
| 2026-04-21 11:38 | 37.90065 | -12.49767 | 29823 ft | 515 kts | 32° |
| 2026-04-21 11:39 | 37.96182 | -12.45021 | 29829 ft | 515 kts | 32° |
| 2026-04-21 11:39 | 38.02291 | -12.40265 | 29821 ft | 515 kts | 32° |
| 2026-04-21 11:40 | 38.08400 | -12.35497 | 29824 ft | 516 kts | 33° |
| 2026-04-21 11:40 | 38.14509 | -12.30723 | 29821 ft | 515 kts | 33° |
| 2026-04-21 11:41 | 38.20603 | -12.25938 | 29808 ft | 515 kts | 33° |
| 2026-04-21 11:41 | 38.26703 | -12.21146 | 29815 ft | 515 kts | 33° |
| 2026-04-21 11:42 | 38.32807 | -12.16359 | 29808 ft | 515 kts | 33° |
| 2026-04-21 11:42 | 38.38904 | -12.11572 | 29801 ft | 515 kts | 33° |
| 2026-04-21 11:43 | 38.44989 | -12.06752 | 29802 ft | 515 kts | 33° |
| 2026-04-21 11:43 | 38.51079 | -12.01926 | 29800 ft | 515 kts | 33° |
| 2026-04-21 11:44 | 38.57168 | -11.97104 | 29800 ft | 515 kts | 33° |
| 2026-04-21 11:44 | 38.63249 | -11.92280 | 29806 ft | 515 kts | 33° |
| 2026-04-21 11:45 | 38.69329 | -11.87444 | 29810 ft | 514 kts | 33° |
| 2026-04-21 11:45 | 38.75386 | -11.82612 | 29806 ft | 513 kts | 33° |
| 2026-04-21 11:46 | 38.81452 | -11.77758 | 29800 ft | 514 kts | 34° |
| 2026-04-21 11:46 | 38.87502 | -11.72902 | 29794 ft | 512 kts | 34° |
| 2026-04-21 11:47 | 38.93539 | -11.68055 | 29791 ft | 511 kts | 34° |
| 2026-04-21 11:47 | 38.99574 | -11.63206 | 29789 ft | 511 kts | 34° |
| 2026-04-21 11:48 | 39.05597 | -11.58359 | 29785 ft | 511 kts | 34° |
| 2026-04-21 11:48 | 39.11615 | -11.53499 | 29783 ft | 511 kts | 34° |
| 2026-04-21 11:49 | 39.17586 | -11.48663 | 29783 ft | 510 kts | 34° |
| 2026-04-21 11:49 | 39.23598 | -11.43787 | 29780 ft | 510 kts | 34° |
| 2026-04-21 11:50 | 39.29617 | -11.38897 | 29902 ft | 513 kts | 34° |
| 2026-04-21 11:50 | 39.32641 | -11.36447 | 30136 ft | 513 kts | 34° |
| 2026-04-21 11:50 | 39.35699 | -11.34078 | 30385 ft | 513 kts | 32° |
| 2026-04-21 11:51 | 39.38795 | -11.31786 | 30632 ft | 513 kts | 31° |
| 2026-04-21 11:51 | 39.41909 | -11.29544 | 30873 ft | 512 kts | 31° |
| 2026-04-21 11:51 | 39.45025 | -11.27320 | 31121 ft | 511 kts | 31° |
| 2026-04-21 11:51 | 39.48132 | -11.25088 | 31366 ft | 510 kts | 31° |
| 2026-04-21 11:52 | 39.51226 | -11.22836 | 31594 ft | 510 kts | 32° |
| 2026-04-21 11:52 | 39.54307 | -11.20561 | 31755 ft | 510 kts | 32° |
| 2026-04-21 11:52 | 39.60452 | -11.15974 | 31754 ft | 509 kts | 32° |
| 2026-04-21 11:53 | 39.66584 | -11.11385 | 31757 ft | 509 kts | 32° |
| 2026-04-21 11:53 | 39.72720 | -11.06797 | 31758 ft | 509 kts | 32° |
| 2026-04-21 11:54 | 39.78851 | -11.02216 | 31755 ft | 508 kts | 32° |
| 2026-04-21 11:54 | 39.84983 | -10.97629 | 31758 ft | 509 kts | 32° |
| 2026-04-21 11:55 | 39.91114 | -10.93029 | 31761 ft | 509 kts | 32° |
| 2026-04-21 11:55 | 39.97251 | -10.88411 | 31763 ft | 509 kts | 32° |
| 2026-04-21 11:56 | 40.03378 | -10.83802 | 31763 ft | 509 kts | 33° |
| 2026-04-21 11:56 | 40.09508 | -10.79178 | 31767 ft | 509 kts | 33° |
| 2026-04-21 11:57 | 40.15634 | -10.74541 | 31767 ft | 508 kts | 33° |
| 2026-04-21 11:57 | 40.21744 | -10.69914 | 31764 ft | 508 kts | 33° |
| 2026-04-21 11:58 | 40.27854 | -10.65280 | 31762 ft | 508 kts | 33° |
| 2026-04-21 11:58 | 40.33966 | -10.60615 | 31765 ft | 509 kts | 33° |
| 2026-04-21 11:59 | 40.40077 | -10.55942 | 31765 ft | 508 kts | 33° |
| 2026-04-21 11:59 | 40.46188 | -10.51270 | 31766 ft | 508 kts | 33° |
| 2026-04-21 12:00 | 40.52298 | -10.46600 | 31766 ft | 508 kts | 33° |
| 2026-04-21 12:00 | 40.58409 | -10.41907 | 31769 ft | 508 kts | 33° |
| 2026-04-21 12:01 | 40.64510 | -10.37205 | 31771 ft | 508 kts | 33° |
| 2026-04-21 12:01 | 40.70576 | -10.32532 | 31767 ft | 508 kts | 33° |
| 2026-04-21 12:02 | 40.79732 | -10.25460 | 31766 ft | 509 kts | 33° |
| 2026-04-21 12:03 | 40.85833 | -10.20725 | 31766 ft | 509 kts | 33° |
| 2026-04-21 12:03 | 40.91937 | -10.15978 | 31770 ft | 509 kts | 33° |
| 2026-04-21 12:04 | 40.97046 | -10.11997 | 31769 ft | 509 kts | 33° |
| 2026-04-21 12:04 | 41.03106 | -10.07268 | 31766 ft | 509 kts | 33° |
| 2026-04-21 12:05 | 41.09199 | -10.02505 | 31762 ft | 508 kts | 34° |
| 2026-04-21 12:05 | 41.15286 | -9.97730 | 31759 ft | 508 kts | 33° |
| 2026-04-21 12:06 | 41.21368 | -9.92958 | 31756 ft | 507 kts | 34° |
| 2026-04-21 12:06 | 41.27437 | -9.88178 | 31743 ft | 507 kts | 33° |
| 2026-04-21 12:07 | 41.33503 | -9.83382 | 31735 ft | 508 kts | 33° |
| 2026-04-21 12:07 | 41.39583 | -9.78571 | 31736 ft | 508 kts | 33° |
| 2026-04-21 12:08 | 41.45662 | -9.73753 | 31737 ft | 508 kts | 34° |
| 2026-04-21 12:08 | 41.51730 | -9.68932 | 31738 ft | 508 kts | 34° |
| 2026-04-21 12:09 | 41.57809 | -9.64098 | 31739 ft | 508 kts | 34° |
| 2026-04-21 12:09 | 41.63880 | -9.59250 | 31742 ft | 509 kts | 34° |
| 2026-04-21 12:10 | 41.69954 | -9.54394 | 31744 ft | 508 kts | 34° |
| 2026-04-21 12:10 | 41.76024 | -9.49541 | 31743 ft | 508 kts | 34° |
| 2026-04-21 12:11 | 41.82084 | -9.44681 | 31740 ft | 508 kts | 34° |
| 2026-04-21 12:11 | 41.88134 | -9.39796 | 31736 ft | 508 kts | 34° |
| 2026-04-21 12:12 | 41.93963 | -9.34513 | 31735 ft | 502 kts | 45° |
| 2026-04-21 12:12 | 41.99141 | -9.28244 | 31736 ft | 501 kts | 46° |
| 2026-04-21 12:13 | 42.04326 | -9.21948 | 31737 ft | 502 kts | 46° |
| 2026-04-21 12:13 | 42.09506 | -9.15645 | 31737 ft | 502 kts | 46° |
| 2026-04-21 12:14 | 42.14681 | -9.09324 | 31738 ft | 502 kts | 46° |
| 2026-04-21 12:14 | 42.19859 | -9.02999 | 31738 ft | 502 kts | 46° |
| 2026-04-21 12:15 | 42.25024 | -8.96667 | 31736 ft | 502 kts | 46° |
| 2026-04-21 12:15 | 42.30196 | -8.90310 | 31729 ft | 502 kts | 46° |
| 2026-04-21 12:16 | 42.35363 | -8.83945 | 31728 ft | 503 kts | 46° |
| 2026-04-21 12:16 | 42.40530 | -8.77568 | 31730 ft | 503 kts | 46° |
| 2026-04-21 12:17 | 42.45699 | -8.71168 | 31730 ft | 504 kts | 46° |
| 2026-04-21 12:17 | 42.50877 | -8.64753 | 31738 ft | 504 kts | 46° |
| 2026-04-21 12:18 | 42.56044 | -8.58324 | 31735 ft | 504 kts | 46° |
| 2026-04-21 12:18 | 42.61174 | -8.51932 | 31746 ft | 504 kts | 46° |
| 2026-04-21 12:19 | 42.66340 | -8.45475 | 31754 ft | 504 kts | 46° |
| 2026-04-21 12:19 | 42.71496 | -8.39008 | 31758 ft | 504 kts | 46° |
| 2026-04-21 12:20 | 42.76648 | -8.32536 | 31758 ft | 505 kts | 46° |
| 2026-04-21 12:20 | 42.81808 | -8.26060 | 31759 ft | 504 kts | 46° |
| 2026-04-21 12:21 | 42.86961 | -8.19562 | 31767 ft | 505 kts | 46° |
| 2026-04-21 12:21 | 42.92106 | -8.13049 | 31768 ft | 504 kts | 46° |
| 2026-04-21 12:22 | 42.97244 | -8.06538 | 31764 ft | 504 kts | 46° |
| 2026-04-21 12:22 | 43.02379 | -8.00017 | 31757 ft | 503 kts | 46° |
| 2026-04-21 12:23 | 43.07510 | -7.93497 | 31752 ft | 504 kts | 46° |
| 2026-04-21 12:23 | 43.12627 | -7.86960 | 31746 ft | 503 kts | 46° |
| 2026-04-21 12:24 | 43.17733 | -7.80419 | 31740 ft | 503 kts | 46° |
| 2026-04-21 12:24 | 43.22837 | -7.73875 | 31740 ft | 502 kts | 46° |
| 2026-04-21 12:25 | 43.27934 | -7.67326 | 31737 ft | 502 kts | 46° |
| 2026-04-21 12:25 | 43.33022 | -7.60762 | 31736 ft | 502 kts | 46° |
| 2026-04-21 12:26 | 43.38111 | -7.54190 | 31734 ft | 502 kts | 46° |
| 2026-04-21 12:26 | 43.43205 | -7.47604 | 31736 ft | 502 kts | 46° |
| 2026-04-21 12:27 | 43.48284 | -7.41003 | 31741 ft | 502 kts | 46° |
| 2026-04-21 12:27 | 43.53356 | -7.34404 | 31746 ft | 502 kts | 46° |
| 2026-04-21 12:28 | 43.58437 | -7.27787 | 31750 ft | 502 kts | 46° |
| 2026-04-21 12:28 | 43.63508 | -7.21161 | 31748 ft | 502 kts | 46° |
| 2026-04-21 12:29 | 43.68564 | -7.14525 | 31747 ft | 501 kts | 46° |
| 2026-04-21 12:29 | 43.73620 | -7.07881 | 31747 ft | 502 kts | 46° |
| 2026-04-21 12:30 | 43.78674 | -7.01229 | 31751 ft | 501 kts | 46° |
| 2026-04-21 12:30 | 43.83719 | -6.94566 | 31759 ft | 502 kts | 46° |
| 2026-04-21 12:31 | 43.88763 | -6.87884 | 31761 ft | 502 kts | 46° |
| 2026-04-21 12:31 | 43.93807 | -6.81196 | 31763 ft | 502 kts | 45° |
| 2026-04-21 12:32 | 43.98848 | -6.74504 | 31765 ft | 501 kts | 45° |
| 2026-04-21 12:32 | 44.03879 | -6.67797 | 31771 ft | 501 kts | 45° |
| 2026-04-21 12:33 | 44.08891 | -6.61072 | 31775 ft | 500 kts | 45° |
| 2026-04-21 12:33 | 44.13897 | -6.54350 | 31774 ft | 500 kts | 45° |
| 2026-04-21 12:34 | 44.18869 | -6.47667 | 31773 ft | 500 kts | 45° |
| 2026-04-21 12:34 | 44.23868 | -6.40944 | 31772 ft | 500 kts | 45° |
| 2026-04-21 12:35 | 44.28870 | -6.34205 | 31772 ft | 500 kts | 45° |
| 2026-04-21 12:35 | 44.33863 | -6.27450 | 31770 ft | 500 kts | 45° |
| 2026-04-21 12:36 | 44.38848 | -6.20680 | 31773 ft | 500 kts | 45° |
| 2026-04-21 12:36 | 44.43828 | -6.13891 | 31783 ft | 500 kts | 45° |
| 2026-04-21 12:37 | 44.48813 | -6.07104 | 31778 ft | 500 kts | 45° |
| 2026-04-21 12:37 | 44.53792 | -6.00302 | 31786 ft | 500 kts | 45° |
| 2026-04-21 12:38 | 44.58763 | -5.93493 | 31804 ft | 499 kts | 45° |
| 2026-04-21 12:38 | 44.63713 | -5.86689 | 31821 ft | 498 kts | 45° |
| 2026-04-21 12:39 | 44.68656 | -5.79879 | 31833 ft | 497 kts | 45° |
| 2026-04-21 12:39 | 44.73611 | -5.73100 | 31847 ft | 497 kts | 44° |
| 2026-04-21 12:40 | 44.78569 | -5.66324 | 31852 ft | 496 kts | 44° |
| 2026-04-21 12:40 | 44.83510 | -5.59538 | 31846 ft | 496 kts | 44° |
| 2026-04-21 12:41 | 44.88434 | -5.52737 | 31834 ft | 495 kts | 44° |
| 2026-04-21 12:41 | 44.93307 | -5.45981 | 31834 ft | 494 kts | 44° |
| 2026-04-21 12:42 | 44.98215 | -5.39198 | 31835 ft | 493 kts | 44° |
| 2026-04-21 12:42 | 45.03115 | -5.32417 | 31849 ft | 493 kts | 44° |
| 2026-04-21 12:43 | 45.07991 | -5.25617 | 31849 ft | 492 kts | 44° |
| 2026-04-21 12:43 | 45.12855 | -5.18813 | 31851 ft | 491 kts | 44° |
| 2026-04-21 12:44 | 45.17708 | -5.12004 | 31850 ft | 491 kts | 44° |
| 2026-04-21 12:44 | 45.22550 | -5.05207 | 31843 ft | 490 kts | 44° |
| 2026-04-21 12:45 | 45.27392 | -4.98401 | 31860 ft | 490 kts | 44° |
| 2026-04-21 12:45 | 45.32226 | -4.91592 | 31859 ft | 489 kts | 44° |
| 2026-04-21 12:46 | 45.37041 | -4.84778 | 31861 ft | 488 kts | 44° |
| 2026-04-21 12:46 | 45.41850 | -4.77959 | 31869 ft | 488 kts | 44° |
| 2026-04-21 12:47 | 45.46657 | -4.71124 | 31879 ft | 487 kts | 44° |
| 2026-04-21 12:47 | 45.51446 | -4.64308 | 31882 ft | 486 kts | 44° |
| 2026-04-21 12:48 | 45.56231 | -4.57479 | 31890 ft | 486 kts | 44° |
| 2026-04-21 12:48 | 45.60999 | -4.50633 | 31897 ft | 486 kts | 44° |
| 2026-04-21 12:49 | 45.65768 | -4.43787 | 31905 ft | 486 kts | 43° |
| 2026-04-21 12:49 | 45.69727 | -4.38084 | 31914 ft | 485 kts | 43° |
| 2026-04-21 12:50 | 45.74477 | -4.31235 | 31927 ft | 484 kts | 43° |
| 2026-04-21 12:50 | 45.79213 | -4.24385 | 31935 ft | 484 kts | 43° |
| 2026-04-21 12:51 | 45.83940 | -4.17538 | 31946 ft | 483 kts | 43° |
| 2026-04-21 12:51 | 45.88652 | -4.10684 | 31948 ft | 482 kts | 43° |
| 2026-04-21 12:52 | 45.93362 | -4.03820 | 31954 ft | 482 kts | 43° |
| 2026-04-21 12:52 | 45.98067 | -3.96945 | 31960 ft | 482 kts | 43° |
| 2026-04-21 12:53 | 46.02767 | -3.90065 | 31965 ft | 482 kts | 43° |
| 2026-04-21 12:53 | 46.07461 | -3.83174 | 31972 ft | 482 kts | 43° |
| 2026-04-21 12:54 | 46.12149 | -3.76271 | 31978 ft | 482 kts | 43° |
| 2026-04-21 12:54 | 46.16829 | -3.69355 | 31978 ft | 482 kts | 43° |
| 2026-04-21 12:55 | 46.21511 | -3.62433 | 31997 ft | 482 kts | 43° |
| 2026-04-21 12:55 | 46.26185 | -3.55484 | 32003 ft | 482 kts | 43° |
| 2026-04-21 12:56 | 46.30851 | -3.48530 | 32011 ft | 481 kts | 43° |
| 2026-04-21 12:56 | 46.35513 | -3.41588 | 32015 ft | 481 kts | 43° |
| 2026-04-21 12:57 | 46.40156 | -3.34632 | 32017 ft | 480 kts | 43° |
| 2026-04-21 12:57 | 46.44765 | -3.27704 | 32023 ft | 480 kts | 43° |
| 2026-04-21 12:58 | 46.49409 | -3.20735 | 32023 ft | 480 kts | 43° |
| 2026-04-21 12:58 | 46.54054 | -3.13759 | 32024 ft | 480 kts | 43° |
| 2026-04-21 12:59 | 46.58235 | -3.06161 | 32023 ft | 485 kts | 57° |
| 2026-04-21 12:59 | 46.61627 | -2.97673 | 32021 ft | 485 kts | 57° |
| 2026-04-21 13:00 | 46.65032 | -2.89190 | 32017 ft | 486 kts | 57° |
| 2026-04-21 13:00 | 46.68438 | -2.80694 | 32018 ft | 486 kts | 57° |
| 2026-04-21 13:01 | 46.71837 | -2.72185 | 32022 ft | 486 kts | 57° |
| 2026-04-21 13:01 | 46.75223 | -2.63644 | 32034 ft | 487 kts | 57° |
| 2026-04-21 13:02 | 46.78605 | -2.55085 | 32038 ft | 487 kts | 57° |
| 2026-04-21 13:02 | 46.83675 | -2.42240 | 32043 ft | 487 kts | 57° |
| 2026-04-21 13:03 | 46.87054 | -2.33684 | 32042 ft | 486 kts | 56° |
| 2026-04-21 13:03 | 46.90584 | -2.25257 | 32044 ft | 486 kts | 54° |
| 2026-04-21 13:04 | 46.94094 | -2.17101 | 32045 ft | 486 kts | 54° |
| 2026-04-21 13:04 | 46.97740 | -2.08524 | 32045 ft | 486 kts | 55° |
| 2026-04-21 13:05 | 47.01726 | -2.00723 | 32036 ft | 478 kts | 40° |
| 2026-04-21 13:05 | 47.06820 | -1.94614 | 32036 ft | 472 kts | 32° |
| 2026-04-21 13:06 | 47.12104 | -1.88800 | 32036 ft | 472 kts | 32° |
| 2026-04-21 13:06 | 47.17315 | -1.83030 | 32035 ft | 472 kts | 32° |
| 2026-04-21 13:07 | 47.22559 | -1.77244 | 32035 ft | 471 kts | 31° |
| 2026-04-21 13:07 | 47.27811 | -1.71452 | 32036 ft | 471 kts | 32° |
| 2026-04-21 13:08 | 47.33044 | -1.65624 | 32037 ft | 473 kts | 34° |
| 2026-04-21 13:08 | 47.37561 | -1.58449 | 32040 ft | 482 kts | 47° |
| 2026-04-21 13:09 | 47.41691 | -1.50652 | 32045 ft | 482 kts | 47° |
| 2026-04-21 13:09 | 47.45821 | -1.42844 | 32053 ft | 482 kts | 47° |
| 2026-04-21 13:10 | 47.49944 | -1.35027 | 32059 ft | 482 kts | 47° |
| 2026-04-21 13:10 | 47.54060 | -1.27197 | 32067 ft | 482 kts | 47° |
| 2026-04-21 13:11 | 47.58175 | -1.19347 | 32074 ft | 482 kts | 47° |
| 2026-04-21 13:11 | 47.62284 | -1.11492 | 32081 ft | 482 kts | 47° |
| 2026-04-21 13:12 | 47.66391 | -1.03621 | 32095 ft | 483 kts | 47° |
| 2026-04-21 13:12 | 47.70482 | -0.95738 | 32101 ft | 482 kts | 48° |
| 2026-04-21 13:13 | 47.74578 | -0.87816 | 32110 ft | 483 kts | 48° |
| 2026-04-21 13:13 | 47.78673 | -0.79903 | 32117 ft | 482 kts | 48° |
| 2026-04-21 13:14 | 47.82726 | -0.72042 | 32100 ft | 482 kts | 48° |
| 2026-04-21 13:14 | 47.86802 | -0.64117 | 32111 ft | 482 kts | 48° |
| 2026-04-21 13:15 | 47.90873 | -0.56166 | 32126 ft | 483 kts | 48° |
| 2026-04-21 13:15 | 47.94934 | -0.48195 | 32108 ft | 482 kts | 48° |
| 2026-04-21 13:16 | 47.98990 | -0.40220 | 32119 ft | 482 kts | 48° |
| 2026-04-21 13:16 | 48.03045 | -0.32241 | 32120 ft | 483 kts | 48° |
| 2026-04-21 13:17 | 48.07094 | -0.24239 | 32132 ft | 482 kts | 47° |
| 2026-04-21 13:17 | 48.11172 | -0.16311 | 32134 ft | 480 kts | 47° |
| 2026-04-21 13:18 | 48.15286 | -0.08445 | 32138 ft | 480 kts | 47° |
| 2026-04-21 13:18 | 48.19387 | -0.00566 | 32140 ft | 479 kts | 47° |
| 2026-04-21 13:19 | 48.23464 | 0.07345 | 32150 ft | 481 kts | 47° |
| 2026-04-21 13:19 | 48.25506 | 0.11322 | 32383 ft | 481 kts | 47° |
| 2026-04-21 13:19 | 48.27545 | 0.15302 | 32653 ft | 480 kts | 47° |
| 2026-04-21 13:20 | 48.28892 | 0.17936 | 32836 ft | 480 kts | 47° |
| 2026-04-21 13:20 | 48.31607 | 0.23247 | 33205 ft | 478 kts | 47° |
| 2026-04-21 13:20 | 48.33627 | 0.27205 | 33456 ft | 477 kts | 47° |
| 2026-04-21 13:20 | 48.35645 | 0.31160 | 33693 ft | 477 kts | 47° |
| 2026-04-21 13:21 | 48.37656 | 0.35110 | 33923 ft | 476 kts | 47° |
| 2026-04-21 13:21 | 48.39671 | 0.39070 | 34098 ft | 476 kts | 47° |
| 2026-04-21 13:21 | 48.43710 | 0.46947 | 34137 ft | 475 kts | 46° |
| 2026-04-21 13:22 | 48.47731 | 0.54749 | 34147 ft | 475 kts | 46° |
| 2026-04-21 13:22 | 48.51856 | 0.62494 | 34148 ft | 469 kts | 40° |
| 2026-04-21 13:23 | 48.56794 | 0.68707 | 34157 ft | 460 kts | 30° |
| 2026-04-21 13:23 | 48.61918 | 0.74518 | 34158 ft | 461 kts | 30° |
| 2026-04-21 13:24 | 48.67034 | 0.80377 | 34168 ft | 461 kts | 31° |
| 2026-04-21 13:24 | 48.72144 | 0.86247 | 34177 ft | 461 kts | 31° |
| 2026-04-21 13:25 | 48.77259 | 0.92112 | 34185 ft | 461 kts | 31° |
| 2026-04-21 13:25 | 48.82370 | 0.97977 | 34196 ft | 461 kts | 31° |
| 2026-04-21 13:26 | 48.87476 | 1.03867 | 34200 ft | 460 kts | 31° |
| 2026-04-21 13:26 | 48.92572 | 1.09763 | 34221 ft | 460 kts | 31° |
| 2026-04-21 13:27 | 48.97668 | 1.15669 | 34205 ft | 460 kts | 31° |
| 2026-04-21 13:27 | 49.02751 | 1.21606 | 34219 ft | 461 kts | 33° |
| 2026-04-21 13:28 | 49.07495 | 1.28288 | 34219 ft | 465 kts | 37° |
| 2026-04-21 13:28 | 49.12194 | 1.35069 | 34210 ft | 465 kts | 37° |
| 2026-04-21 13:29 | 49.16893 | 1.41853 | 34216 ft | 465 kts | 37° |
| 2026-04-21 13:29 | 49.21588 | 1.48655 | 34213 ft | 465 kts | 37° |
| 2026-04-21 13:30 | 49.26266 | 1.55467 | 34214 ft | 464 kts | 37° |
| 2026-04-21 13:30 | 49.30937 | 1.62272 | 34211 ft | 463 kts | 37° |
| 2026-04-21 13:31 | 49.35602 | 1.69086 | 34208 ft | 463 kts | 37° |
| 2026-04-21 13:31 | 49.40255 | 1.75909 | 34223 ft | 463 kts | 37° |
| 2026-04-21 13:32 | 49.44873 | 1.82697 | 34225 ft | 463 kts | 37° |
| 2026-04-21 13:32 | 49.49520 | 1.89543 | 34234 ft | 462 kts | 38° |
| 2026-04-21 13:33 | 49.54153 | 1.96385 | 34238 ft | 461 kts | 38° |
| 2026-04-21 13:33 | 49.58782 | 2.03238 | 34236 ft | 461 kts | 38° |
| 2026-04-21 13:34 | 49.63406 | 2.10096 | 34239 ft | 461 kts | 38° |
| 2026-04-21 13:34 | 49.68016 | 2.16977 | 34243 ft | 461 kts | 38° |
| 2026-04-21 13:35 | 49.72624 | 2.23862 | 34248 ft | 461 kts | 38° |
| 2026-04-21 13:35 | 49.77224 | 2.30759 | 34246 ft | 461 kts | 38° |
| 2026-04-21 13:36 | 49.81823 | 2.37678 | 34248 ft | 461 kts | 38° |
| 2026-04-21 13:36 | 49.86418 | 2.44603 | 34244 ft | 461 kts | 38° |
| 2026-04-21 13:37 | 49.90237 | 2.50368 | 34241 ft | 461 kts | 38° |
| 2026-04-21 13:37 | 49.94828 | 2.57318 | 34238 ft | 461 kts | 38° |
| 2026-04-21 13:38 | 49.99405 | 2.64279 | 34238 ft | 460 kts | 38° |
| 2026-04-21 13:38 | 50.03977 | 2.71237 | 34232 ft | 459 kts | 39° |
| 2026-04-21 13:39 | 50.08538 | 2.78200 | 34240 ft | 459 kts | 39° |
| 2026-04-21 13:39 | 50.13086 | 2.85170 | 34238 ft | 459 kts | 39° |
| 2026-04-21 13:40 | 50.17629 | 2.92150 | 34240 ft | 458 kts | 39° |
| 2026-04-21 13:40 | 50.22161 | 2.99140 | 34244 ft | 458 kts | 40° |
| 2026-04-21 13:41 | 50.26697 | 3.06153 | 34255 ft | 458 kts | 40° |
| 2026-04-21 13:41 | 50.31233 | 3.13159 | 34257 ft | 458 kts | 40° |
| 2026-04-21 13:42 | 50.35750 | 3.20170 | 34256 ft | 458 kts | 40° |
| 2026-04-21 13:42 | 50.40394 | 3.26932 | 34256 ft | 452 kts | 31° |
| 2026-04-21 13:43 | 50.45807 | 3.31710 | 34260 ft | 445 kts | 22° |
| 2026-04-21 13:43 | 50.51324 | 3.36013 | 34261 ft | 445 kts | 22° |
| 2026-04-21 13:44 | 50.56942 | 3.40094 | 34262 ft | 445 kts | 19° |
| 2026-04-21 13:44 | 50.62636 | 3.43896 | 34267 ft | 445 kts | 19° |
| 2026-04-21 13:45 | 50.68331 | 3.47723 | 34268 ft | 445 kts | 20° |
| 2026-04-21 13:45 | 50.73996 | 3.51627 | 34273 ft | 444 kts | 20° |
| 2026-04-21 13:46 | 50.79692 | 3.55601 | 34274 ft | 445 kts | 20° |
| 2026-04-21 13:46 | 50.85318 | 3.59529 | 34281 ft | 445 kts | 20° |
| 2026-04-21 13:47 | 50.90982 | 3.63484 | 34281 ft | 445 kts | 20° |
| 2026-04-21 13:47 | 50.96636 | 3.67494 | 34287 ft | 445 kts | 21° |
| 2026-04-21 13:48 | 51.02274 | 3.71562 | 34289 ft | 445 kts | 21° |
| 2026-04-21 13:48 | 51.07912 | 3.75642 | 34299 ft | 445 kts | 21° |
| 2026-04-21 13:49 | 51.13555 | 3.79730 | 34300 ft | 446 kts | 22° |
| 2026-04-21 13:49 | 51.19195 | 3.83829 | 34303 ft | 445 kts | 22° |
| 2026-04-21 13:50 | 51.24834 | 3.87928 | 34309 ft | 445 kts | 22° |
| 2026-04-21 13:50 | 51.30475 | 3.92034 | 34311 ft | 445 kts | 22° |
| 2026-04-21 13:51 | 51.36111 | 3.96164 | 34306 ft | 445 kts | 22° |
| 2026-04-21 13:51 | 51.41742 | 4.00297 | 34307 ft | 446 kts | 23° |
| 2026-04-21 13:52 | 51.47339 | 4.04575 | 34300 ft | 446 kts | 29° |
| 2026-04-21 13:52 | 51.52268 | 4.10644 | 34314 ft | 448 kts | 39° |
| 2026-04-21 13:53 | 51.57009 | 4.17160 | 34313 ft | 448 kts | 39° |
| 2026-04-21 13:53 | 51.61754 | 4.23666 | 34311 ft | 448 kts | 39° |
| 2026-04-21 13:54 | 51.64123 | 4.26920 | 34180 ft | 448 kts | 39° |
| 2026-04-21 13:54 | 51.66494 | 4.30179 | 33927 ft | 448 kts | 39° |
| 2026-04-21 13:54 | 51.68856 | 4.33438 | 33680 ft | 448 kts | 39° |
| 2026-04-21 13:54 | 51.71220 | 4.36712 | 33432 ft | 447 kts | 39° |
| 2026-04-21 13:55 | 51.73576 | 4.39977 | 33273 ft | 446 kts | 39° |
| 2026-04-21 13:55 | 51.75930 | 4.43240 | 33319 ft | 447 kts | 39° |
| 2026-04-21 13:55 | 51.80645 | 4.49791 | 33322 ft | 447 kts | 39° |
| 2026-04-21 13:56 | 51.85353 | 4.56348 | 33322 ft | 446 kts | 39° |
| 2026-04-21 13:56 | 51.90025 | 4.62871 | 33321 ft | 446 kts | 39° |
| 2026-04-21 13:57 | 51.94713 | 4.69463 | 33322 ft | 447 kts | 39° |
| 2026-04-21 13:57 | 51.99409 | 4.76071 | 33326 ft | 447 kts | 39° |
| 2026-04-21 13:58 | 52.04107 | 4.82680 | 33338 ft | 447 kts | 40° |
| 2026-04-21 13:58 | 52.08788 | 4.89287 | 33352 ft | 445 kts | 40° |
| 2026-04-21 13:59 | 52.13457 | 4.95890 | 33355 ft | 444 kts | 41° |
| 2026-04-21 13:59 | 52.18106 | 5.02513 | 33351 ft | 443 kts | 41° |
| 2026-04-21 14:00 | 52.22734 | 5.09140 | 33352 ft | 442 kts | 41° |
| 2026-04-21 14:00 | 52.27364 | 5.15754 | 33352 ft | 442 kts | 41° |
| 2026-04-21 14:01 | 52.31993 | 5.22379 | 33358 ft | 442 kts | 41° |
| 2026-04-21 14:01 | 52.36600 | 5.29000 | 33362 ft | 441 kts | 41° |
| 2026-04-21 14:02 | 52.41193 | 5.35649 | 33367 ft | 440 kts | 41° |
| 2026-04-21 14:03 | 52.48076 | 5.45611 | 33369 ft | 440 kts | 41° |
| 2026-04-21 14:03 | 52.52651 | 5.52234 | 33369 ft | 440 kts | 41° |
| 2026-04-21 14:04 | 52.57236 | 5.58916 | 33369 ft | 439 kts | 41° |
| 2026-04-21 14:04 | 52.61802 | 5.65606 | 33372 ft | 439 kts | 42° |
| 2026-04-21 14:05 | 52.66364 | 5.72299 | 33368 ft | 439 kts | 42° |
| 2026-04-21 14:05 | 52.70917 | 5.78983 | 33367 ft | 438 kts | 42° |
| 2026-04-21 14:06 | 52.75458 | 5.85683 | 33366 ft | 438 kts | 42° |
| 2026-04-21 14:06 | 52.79998 | 5.92396 | 33364 ft | 437 kts | 42° |
| 2026-04-21 14:07 | 52.84527 | 5.99111 | 33365 ft | 438 kts | 42° |
| 2026-04-21 14:07 | 52.89061 | 6.05857 | 33370 ft | 438 kts | 43° |
| 2026-04-21 14:08 | 52.93553 | 6.12558 | 33377 ft | 437 kts | 43° |
| 2026-04-21 14:08 | 52.98065 | 6.19307 | 33381 ft | 436 kts | 43° |
| 2026-04-21 14:09 | 53.02561 | 6.26064 | 33377 ft | 435 kts | 44° |
| 2026-04-21 14:09 | 53.07049 | 6.32823 | 33376 ft | 435 kts | 44° |
| 2026-04-21 14:10 | 53.11527 | 6.39582 | 33376 ft | 435 kts | 44° |
| 2026-04-21 14:10 | 53.16003 | 6.46361 | 33378 ft | 434 kts | 44° |
| 2026-04-21 14:11 | 53.20469 | 6.53132 | 33378 ft | 434 kts | 44° |
| 2026-04-21 14:11 | 53.24928 | 6.59912 | 33376 ft | 433 kts | 44° |
| 2026-04-21 14:12 | 53.29374 | 6.66704 | 33377 ft | 433 kts | 44° |
| 2026-04-21 14:12 | 53.33812 | 6.73506 | 33380 ft | 432 kts | 44° |
| 2026-04-21 14:13 | 53.38238 | 6.80305 | 33380 ft | 432 kts | 45° |
| 2026-04-21 14:13 | 53.42662 | 6.87122 | 33387 ft | 432 kts | 45° |
| 2026-04-21 14:14 | 53.47079 | 6.93954 | 33391 ft | 431 kts | 45° |
| 2026-04-21 14:14 | 53.51483 | 7.00780 | 33391 ft | 431 kts | 45° |
| 2026-04-21 14:15 | 53.55879 | 7.07617 | 33397 ft | 430 kts | 45° |
| 2026-04-21 14:15 | 53.60265 | 7.14448 | 33395 ft | 430 kts | 45° |
| 2026-04-21 14:16 | 53.64641 | 7.21298 | 33392 ft | 429 kts | 45° |
| 2026-04-21 14:16 | 53.69010 | 7.28152 | 33396 ft | 428 kts | 46° |
| 2026-04-21 14:17 | 53.73368 | 7.34990 | 33405 ft | 428 kts | 46° |
| 2026-04-21 14:17 | 53.77712 | 7.41847 | 33405 ft | 427 kts | 46° |
| 2026-04-21 14:18 | 53.82038 | 7.48702 | 33402 ft | 426 kts | 46° |
| 2026-04-21 14:18 | 53.86333 | 7.55509 | 33401 ft | 426 kts | 46° |
| 2026-04-21 14:19 | 53.90650 | 7.62375 | 33415 ft | 426 kts | 46° |
| 2026-04-21 14:19 | 53.94952 | 7.69249 | 33413 ft | 424 kts | 47° |
| 2026-04-21 14:20 | 53.99242 | 7.76116 | 33410 ft | 423 kts | 47° |
| 2026-04-21 14:20 | 54.03518 | 7.82981 | 33406 ft | 422 kts | 47° |
| 2026-04-21 14:21 | 54.07781 | 7.89858 | 33416 ft | 422 kts | 47° |
| 2026-04-21 14:21 | 54.12040 | 7.96746 | 33407 ft | 422 kts | 47° |
| 2026-04-21 14:22 | 54.16285 | 8.03623 | 33415 ft | 421 kts | 47° |
| 2026-04-21 14:22 | 54.20522 | 8.10514 | 33402 ft | 421 kts | 47° |
| 2026-04-21 14:23 | 54.24757 | 8.17418 | 33406 ft | 421 kts | 47° |
| 2026-04-21 14:23 | 54.28275 | 8.23179 | 33413 ft | 421 kts | 47° |
| 2026-04-21 14:24 | 54.32506 | 8.30109 | 33406 ft | 422 kts | 47° |
| 2026-04-21 14:24 | 54.36740 | 8.37066 | 33405 ft | 421 kts | 47° |
| 2026-04-21 14:25 | 54.40966 | 8.44028 | 33404 ft | 421 kts | 47° |
| 2026-04-21 14:25 | 54.45190 | 8.50993 | 33404 ft | 421 kts | 47° |
| 2026-04-21 14:26 | 54.49403 | 8.57986 | 33400 ft | 421 kts | 48° |
| 2026-04-21 14:26 | 54.53622 | 8.65023 | 33401 ft | 422 kts | 48° |
| 2026-04-21 14:27 | 54.57835 | 8.72062 | 33403 ft | 422 kts | 48° |
| 2026-04-21 14:27 | 54.62025 | 8.79075 | 33406 ft | 422 kts | 48° |
| 2026-04-21 14:28 | 54.66270 | 8.86195 | 33416 ft | 423 kts | 48° |
| 2026-04-21 14:28 | 54.70483 | 8.93283 | 33421 ft | 422 kts | 48° |
| 2026-04-21 14:29 | 54.74653 | 9.00334 | 33423 ft | 422 kts | 48° |
| 2026-04-21 14:29 | 54.78846 | 9.07447 | 33425 ft | 422 kts | 48° |
| 2026-04-21 14:30 | 54.83043 | 9.14590 | 33424 ft | 423 kts | 48° |
| 2026-04-21 14:30 | 54.87042 | 9.21982 | 33422 ft | 418 kts | 55° |
| 2026-04-21 14:31 | 54.90622 | 9.29945 | 33419 ft | 418 kts | 56° |
| 2026-04-21 14:31 | 54.94193 | 9.37923 | 33419 ft | 418 kts | 56° |
| 2026-04-21 14:32 | 54.97762 | 9.45907 | 33421 ft | 418 kts | 56° |
| 2026-04-21 14:32 | 55.01333 | 9.53909 | 33424 ft | 418 kts | 55° |
| 2026-04-21 14:33 | 55.04895 | 9.61939 | 33424 ft | 419 kts | 56° |
| 2026-04-21 14:33 | 55.08450 | 9.69983 | 33424 ft | 419 kts | 56° |
| 2026-04-21 14:34 | 55.12006 | 9.78041 | 33421 ft | 419 kts | 56° |
| 2026-04-21 14:34 | 55.15555 | 9.86113 | 33421 ft | 419 kts | 56° |
| 2026-04-21 14:35 | 55.19100 | 9.94203 | 33421 ft | 419 kts | 56° |
| 2026-04-21 14:35 | 55.22640 | 10.02305 | 33425 ft | 419 kts | 56° |
| 2026-04-21 14:36 | 55.26173 | 10.10428 | 33430 ft | 419 kts | 56° |
| 2026-04-21 14:36 | 55.29701 | 10.18555 | 33429 ft | 419 kts | 56° |
| 2026-04-21 14:37 | 55.33224 | 10.26702 | 33428 ft | 419 kts | 56° |
| 2026-04-21 14:37 | 55.36742 | 10.34858 | 33430 ft | 419 kts | 56° |
| 2026-04-21 14:38 | 55.40235 | 10.42966 | 33428 ft | 418 kts | 56° |
| 2026-04-21 14:38 | 55.43735 | 10.51139 | 33427 ft | 418 kts | 56° |
| 2026-04-21 14:39 | 55.47225 | 10.59328 | 33426 ft | 418 kts | 56° |
| 2026-04-21 14:39 | 55.50710 | 10.67529 | 33426 ft | 418 kts | 56° |
| 2026-04-21 14:40 | 55.54194 | 10.75751 | 33424 ft | 418 kts | 56° |
| 2026-04-21 14:40 | 55.57677 | 10.83988 | 33424 ft | 418 kts | 56° |
| 2026-04-21 14:41 | 55.61150 | 10.92217 | 33421 ft | 417 kts | 56° |
| 2026-04-21 14:41 | 55.64605 | 11.00458 | 33420 ft | 417 kts | 56° |
| 2026-04-21 14:42 | 55.68054 | 11.08709 | 33420 ft | 417 kts | 56° |
| 2026-04-21 14:42 | 55.71507 | 11.16974 | 33422 ft | 417 kts | 56° |
| 2026-04-21 14:43 | 55.74948 | 11.25239 | 33415 ft | 416 kts | 56° |
| 2026-04-21 14:43 | 55.78378 | 11.33529 | 33411 ft | 416 kts | 56° |
| 2026-04-21 14:44 | 55.81796 | 11.41827 | 33399 ft | 416 kts | 56° |
| 2026-04-21 14:44 | 55.85205 | 11.50119 | 33412 ft | 415 kts | 56° |
| 2026-04-21 14:45 | 55.88611 | 11.58417 | 33399 ft | 415 kts | 56° |
| 2026-04-21 14:45 | 55.92009 | 11.66730 | 33400 ft | 415 kts | 56° |
| 2026-04-21 14:46 | 55.95398 | 11.75060 | 33396 ft | 415 kts | 56° |
| 2026-04-21 14:46 | 55.98780 | 11.83414 | 33394 ft | 415 kts | 56° |
| 2026-04-21 14:47 | 56.02156 | 11.91781 | 33391 ft | 415 kts | 56° |
| 2026-04-21 14:47 | 56.05536 | 12.00167 | 33388 ft | 416 kts | 56° |
| 2026-04-21 14:48 | 56.08913 | 12.08554 | 33394 ft | 416 kts | 56° |
| 2026-04-21 14:48 | 56.12267 | 12.16919 | 33391 ft | 416 kts | 56° |
| 2026-04-21 14:49 | 56.15634 | 12.25366 | 33389 ft | 416 kts | 56° |
| 2026-04-21 14:49 | 56.18995 | 12.33833 | 33397 ft | 417 kts | 56° |
| 2026-04-21 14:50 | 56.21815 | 12.40946 | 33401 ft | 417 kts | 56° |
| 2026-04-21 14:50 | 56.25716 | 12.50831 | 33398 ft | 417 kts | 56° |
| 2026-04-21 14:51 | 56.29062 | 12.59353 | 33398 ft | 417 kts | 56° |
| 2026-04-21 14:51 | 56.32405 | 12.67894 | 33400 ft | 417 kts | 56° |
| 2026-04-21 14:52 | 56.35749 | 12.76437 | 33398 ft | 417 kts | 55° |
| 2026-04-21 14:52 | 56.39088 | 12.85001 | 33400 ft | 417 kts | 56° |
| 2026-04-21 14:53 | 56.42417 | 12.93591 | 33396 ft | 417 kts | 56° |
| 2026-04-21 14:53 | 56.45736 | 13.02189 | 33393 ft | 417 kts | 55° |
| 2026-04-21 14:54 | 56.49046 | 13.10793 | 33391 ft | 417 kts | 56° |
| 2026-04-21 14:54 | 56.52353 | 13.19421 | 33393 ft | 417 kts | 55° |
| 2026-04-21 14:55 | 56.55652 | 13.28046 | 33394 ft | 417 kts | 55° |
| 2026-04-21 14:55 | 56.58949 | 13.36681 | 33388 ft | 416 kts | 55° |
| 2026-04-21 14:56 | 56.62233 | 13.45323 | 33382 ft | 416 kts | 55° |
| 2026-04-21 14:56 | 56.65508 | 13.53979 | 33379 ft | 416 kts | 55° |
| 2026-04-21 14:57 | 56.68775 | 13.62651 | 33379 ft | 415 kts | 56° |
| 2026-04-21 14:57 | 56.72028 | 13.71334 | 33370 ft | 416 kts | 56° |
| 2026-04-21 14:58 | 56.75277 | 13.80037 | 33364 ft | 415 kts | 56° |
| 2026-04-21 14:58 | 56.78531 | 13.88743 | 33360 ft | 415 kts | 55° |
| 2026-04-21 14:59 | 56.81780 | 13.97441 | 33354 ft | 415 kts | 56° |
| 2026-04-21 14:59 | 56.85023 | 14.06180 | 33354 ft | 415 kts | 55° |
| 2026-04-21 15:00 | 56.88224 | 14.14876 | 33353 ft | 415 kts | 55° |
| 2026-04-21 15:00 | 56.91443 | 14.23624 | 33349 ft | 414 kts | 55° |
| 2026-04-21 15:01 | 56.94663 | 14.32389 | 33344 ft | 415 kts | 55° |
| 2026-04-21 15:01 | 56.97871 | 14.41172 | 33342 ft | 415 kts | 55° |
| 2026-04-21 15:02 | 57.01071 | 14.49966 | 33340 ft | 415 kts | 55° |
| 2026-04-21 15:02 | 57.04268 | 14.58789 | 33339 ft | 415 kts | 55° |
| 2026-04-21 15:03 | 57.07460 | 14.67624 | 33341 ft | 415 kts | 55° |
| 2026-04-21 15:03 | 57.10648 | 14.76470 | 33338 ft | 415 kts | 55° |
| 2026-04-21 15:04 | 57.13827 | 14.85342 | 33337 ft | 415 kts | 55° |
| 2026-04-21 15:04 | 57.16998 | 14.94233 | 33340 ft | 415 kts | 55° |
| 2026-04-21 15:05 | 57.20163 | 15.03121 | 33340 ft | 415 kts | 55° |
| 2026-04-21 15:05 | 57.24897 | 15.16467 | 33341 ft | 414 kts | 55° |
| 2026-04-21 15:06 | 57.28047 | 15.25382 | 33342 ft | 414 kts | 55° |
| 2026-04-21 15:06 | 57.31176 | 15.34296 | 33350 ft | 413 kts | 55° |
| 2026-04-21 15:07 | 57.34288 | 15.43204 | 33343 ft | 412 kts | 55° |
| 2026-04-21 15:07 | 57.37395 | 15.52116 | 33340 ft | 411 kts | 55° |
| 2026-04-21 15:08 | 57.40491 | 15.61030 | 33335 ft | 411 kts | 55° |
| 2026-04-21 15:08 | 57.43580 | 15.69927 | 33326 ft | 410 kts | 55° |
| 2026-04-21 15:09 | 57.46663 | 15.78850 | 33321 ft | 410 kts | 55° |
| 2026-04-21 15:09 | 57.49715 | 15.87731 | 33320 ft | 411 kts | 55° |
| 2026-04-21 15:10 | 57.52782 | 15.96698 | 33317 ft | 411 kts | 55° |
| 2026-04-21 15:10 | 57.55846 | 16.05686 | 33315 ft | 412 kts | 55° |
| 2026-04-21 15:11 | 57.58409 | 16.13243 | 33317 ft | 412 kts | 55° |
| 2026-04-21 15:11 | 57.61471 | 16.22287 | 33318 ft | 412 kts | 55° |
| 2026-04-21 15:12 | 57.64527 | 16.31343 | 33317 ft | 412 kts | 55° |
| 2026-04-21 15:12 | 57.67553 | 16.40346 | 33313 ft | 412 kts | 55° |
| 2026-04-21 15:13 | 57.70591 | 16.49421 | 33309 ft | 412 kts | 55° |
| 2026-04-21 15:13 | 57.73627 | 16.58505 | 33309 ft | 412 kts | 55° |
| 2026-04-21 15:14 | 57.76669 | 16.67666 | 33306 ft | 411 kts | 56° |
| 2026-04-21 15:14 | 57.79675 | 16.76765 | 33305 ft | 411 kts | 56° |
| 2026-04-21 15:15 | 57.82660 | 16.85820 | 33306 ft | 411 kts | 56° |
| 2026-04-21 15:15 | 57.85662 | 16.94947 | 33307 ft | 411 kts | 56° |
| 2026-04-21 15:16 | 57.88653 | 17.04089 | 33308 ft | 410 kts | 56° |
| 2026-04-21 15:16 | 57.91637 | 17.13234 | 33304 ft | 410 kts | 56° |
| 2026-04-21 15:17 | 57.94612 | 17.22385 | 33304 ft | 410 kts | 56° |
| 2026-04-21 15:17 | 57.97576 | 17.31553 | 33302 ft | 410 kts | 56° |
| 2026-04-21 15:18 | 58.00534 | 17.40749 | 33302 ft | 411 kts | 56° |
| 2026-04-21 15:18 | 58.03500 | 17.49974 | 33294 ft | 412 kts | 56° |
| 2026-04-21 15:19 | 58.06463 | 17.59243 | 33293 ft | 412 kts | 56° |
| 2026-04-21 15:19 | 58.09419 | 17.68531 | 33296 ft | 412 kts | 56° |
| 2026-04-21 15:20 | 58.12370 | 17.77817 | 33301 ft | 412 kts | 56° |
| 2026-04-21 15:20 | 58.15310 | 17.87134 | 33304 ft | 412 kts | 56° |
| 2026-04-21 15:21 | 58.18233 | 17.96455 | 33305 ft | 412 kts | 56° |
| 2026-04-21 15:21 | 58.21160 | 18.05784 | 33304 ft | 411 kts | 56° |
| 2026-04-21 15:22 | 58.24064 | 18.15138 | 33304 ft | 411 kts | 56° |
| 2026-04-21 15:22 | 58.26960 | 18.24516 | 33301 ft | 412 kts | 56° |
| 2026-04-21 15:23 | 58.29836 | 18.33858 | 33299 ft | 412 kts | 56° |
| 2026-04-21 15:23 | 58.32731 | 18.43282 | 33302 ft | 413 kts | 56° |
| 2026-04-21 15:24 | 58.35625 | 18.52733 | 33299 ft | 413 kts | 57° |
| 2026-04-21 15:24 | 58.38507 | 18.62216 | 33293 ft | 414 kts | 57° |
| 2026-04-21 15:25 | 58.41385 | 18.71725 | 33292 ft | 414 kts | 57° |
| 2026-04-21 15:25 | 58.44256 | 18.81254 | 33289 ft | 415 kts | 57° |
| 2026-04-21 15:26 | 58.47115 | 18.90820 | 33283 ft | 415 kts | 57° |
| 2026-04-21 15:26 | 58.49976 | 19.00399 | 33281 ft | 415 kts | 57° |
| 2026-04-21 15:27 | 58.52842 | 19.09989 | 33284 ft | 415 kts | 57° |
| 2026-04-21 15:27 | 58.55702 | 19.19597 | 33278 ft | 416 kts | 57° |
| 2026-04-21 15:28 | 58.58560 | 19.29243 | 33282 ft | 416 kts | 57° |
| 2026-04-21 15:28 | 58.61404 | 19.38912 | 33282 ft | 416 kts | 58° |
| 2026-04-21 15:29 | 58.64231 | 19.48606 | 33280 ft | 416 kts | 58° |
| 2026-04-21 15:29 | 58.67061 | 19.58319 | 33281 ft | 417 kts | 58° |
| 2026-04-21 15:30 | 58.69888 | 19.68036 | 33281 ft | 417 kts | 58° |
| 2026-04-21 15:30 | 58.72718 | 19.77764 | 33280 ft | 417 kts | 58° |
| 2026-04-21 15:31 | 58.75541 | 19.87513 | 33279 ft | 417 kts | 58° |
| 2026-04-21 15:31 | 58.78355 | 19.97289 | 33279 ft | 417 kts | 58° |
| 2026-04-21 15:32 | 58.81152 | 20.07092 | 33272 ft | 418 kts | 59° |
| 2026-04-21 15:32 | 58.83942 | 20.16930 | 33268 ft | 417 kts | 59° |
| 2026-04-21 15:33 | 58.86728 | 20.26777 | 33268 ft | 418 kts | 59° |
| 2026-04-21 15:33 | 58.89510 | 20.36635 | 33264 ft | 418 kts | 59° |
| 2026-04-21 15:34 | 58.92290 | 20.46530 | 33257 ft | 418 kts | 59° |
| 2026-04-21 15:34 | 58.95036 | 20.56357 | 33250 ft | 418 kts | 59° |
| 2026-04-21 15:35 | 58.97801 | 20.66276 | 33251 ft | 418 kts | 59° |
| 2026-04-21 15:35 | 59.00560 | 20.76205 | 33246 ft | 418 kts | 59° |
| 2026-04-21 15:36 | 59.03307 | 20.86159 | 33246 ft | 419 kts | 59° |
| 2026-04-21 15:36 | 59.06096 | 20.96094 | 33246 ft | 418 kts | 57° |
| 2026-04-21 15:37 | 59.09133 | 21.05726 | 33242 ft | 418 kts | 55° |
| 2026-04-21 15:37 | 59.12238 | 21.15270 | 33235 ft | 418 kts | 56° |
| 2026-04-21 15:38 | 59.15289 | 21.24891 | 33232 ft | 418 kts | 56° |
| 2026-04-21 15:38 | 59.18297 | 21.34577 | 33228 ft | 417 kts | 56° |
| 2026-04-21 15:39 | 59.21288 | 21.44263 | 33224 ft | 417 kts | 57° |
| 2026-04-21 15:39 | 59.24275 | 21.53982 | 33218 ft | 417 kts | 56° |
| 2026-04-21 15:40 | 59.27257 | 21.63677 | 33215 ft | 417 kts | 57° |
| 2026-04-21 15:40 | 59.30240 | 21.73407 | 33213 ft | 416 kts | 57° |
| 2026-04-21 15:41 | 59.33207 | 21.83154 | 33210 ft | 417 kts | 57° |
| 2026-04-21 15:41 | 59.36147 | 21.92850 | 33206 ft | 417 kts | 57° |
| 2026-04-21 15:42 | 59.39106 | 22.02635 | 33205 ft | 417 kts | 57° |
| 2026-04-21 15:42 | 59.42062 | 22.12422 | 33034 ft | 416 kts | 57° |
| 2026-04-21 15:43 | 59.43551 | 22.17356 | 32016 ft | 424 kts | 57° |
| 2026-04-21 15:43 | 59.45064 | 22.22391 | 31008 ft | 431 kts | 57° |
| 2026-04-21 15:43 | 59.46593 | 22.27503 | 30053 ft | 436 kts | 57° |
| 2026-04-21 15:43 | 59.48130 | 22.32660 | 29084 ft | 439 kts | 57° |
| 2026-04-21 15:44 | 59.49680 | 22.37869 | 28097 ft | 442 kts | 57° |
| 2026-04-21 15:44 | 59.51236 | 22.43099 | 26937 ft | 441 kts | 57° |
| 2026-04-21 15:44 | 59.52791 | 22.48347 | 25373 ft | 446 kts | 58° |
| 2026-04-21 15:44 | 59.54360 | 22.53649 | 23813 ft | 448 kts | 58° |
| 2026-04-21 15:45 | 59.55929 | 22.58965 | 22945 ft | 447 kts | 58° |
| 2026-04-21 15:45 | 59.57476 | 22.64233 | 22195 ft | 442 kts | 58° |
| 2026-04-21 15:45 | 59.59001 | 22.69442 | 21385 ft | 433 kts | 58° |
| 2026-04-21 15:45 | 59.60492 | 22.74551 | 20215 ft | 426 kts | 58° |
| 2026-04-21 15:46 | 59.61940 | 22.79535 | 19450 ft | 411 kts | 58° |
| 2026-04-21 15:46 | 59.63332 | 22.84339 | 18737 ft | 396 kts | 58° |
| 2026-04-21 15:46 | 59.64694 | 22.89042 | 18012 ft | 393 kts | 58° |
| 2026-04-21 15:46 | 59.66048 | 22.93726 | 17310 ft | 392 kts | 58° |
| 2026-04-21 15:47 | 59.67402 | 22.98402 | 16624 ft | 390 kts | 57° |
| 2026-04-21 15:47 | 59.68722 | 23.02967 | 16411 ft | 369 kts | 57° |
| 2026-04-21 15:47 | 59.69937 | 23.07184 | 16159 ft | 337 kts | 57° |
| 2026-04-21 15:47 | 59.71047 | 23.11037 | 16003 ft | 309 kts | 57° |
| 2026-04-21 15:48 | 59.72086 | 23.14646 | 15730 ft | 295 kts | 57° |
| 2026-04-21 15:48 | 59.73095 | 23.18141 | 15233 ft | 290 kts | 57° |
| 2026-04-21 15:48 | 59.74092 | 23.21584 | 14652 ft | 286 kts | 57° |
| 2026-04-21 15:48 | 59.75075 | 23.24985 | 13904 ft | 283 kts | 56° |
| 2026-04-21 15:49 | 59.76047 | 23.28359 | 13165 ft | 280 kts | 57° |
| 2026-04-21 15:49 | 59.77007 | 23.31704 | 12432 ft | 278 kts | 57° |
| 2026-04-21 15:49 | 59.77954 | 23.35030 | 11704 ft | 275 kts | 57° |
| 2026-04-21 15:49 | 59.78896 | 23.38347 | 11347 ft | 273 kts | 57° |
| 2026-04-21 15:50 | 59.79832 | 23.41644 | 11262 ft | 276 kts | 57° |
| 2026-04-21 15:50 | 59.80778 | 23.44976 | 11143 ft | 278 kts | 57° |
| 2026-04-21 15:50 | 59.81717 | 23.48283 | 11010 ft | 278 kts | 57° |
| 2026-04-21 15:50 | 59.82676 | 23.51669 | 10882 ft | 278 kts | 57° |
| 2026-04-21 15:51 | 59.83610 | 23.54975 | 10756 ft | 278 kts | 57° |
| 2026-04-21 15:51 | 59.84555 | 23.58328 | 10632 ft | 277 kts | 57° |
| 2026-04-21 15:51 | 59.85495 | 23.61673 | 10513 ft | 277 kts | 58° |
| 2026-04-21 15:51 | 59.86438 | 23.65026 | 10390 ft | 277 kts | 58° |
| 2026-04-21 15:52 | 59.87387 | 23.68366 | 10223 ft | 277 kts | 57° |
| 2026-04-21 15:52 | 59.88387 | 23.71621 | 9979 ft | 275 kts | 55° |
| 2026-04-21 15:52 | 59.89085 | 23.73796 | 9895 ft | 275 kts | 54° |
| 2026-04-21 15:52 | 59.90459 | 23.78018 | 9759 ft | 269 kts | 54° |
| 2026-04-21 15:53 | 59.91453 | 23.81089 | 9639 ft | 259 kts | 54° |
| 2026-04-21 15:53 | 59.92413 | 23.84073 | 9507 ft | 255 kts | 54° |
| 2026-04-21 15:53 | 59.93363 | 23.87044 | 9397 ft | 254 kts | 54° |
| 2026-04-21 15:53 | 59.94312 | 23.90023 | 9293 ft | 254 kts | 55° |
| 2026-04-21 15:54 | 59.95258 | 23.92998 | 9179 ft | 254 kts | 54° |
| 2026-04-21 15:54 | 59.96203 | 23.95972 | 9056 ft | 254 kts | 55° |
| 2026-04-21 15:54 | 59.97150 | 23.98957 | 8928 ft | 254 kts | 55° |
| 2026-04-21 15:54 | 59.98093 | 24.01936 | 8803 ft | 254 kts | 55° |
| 2026-04-21 15:55 | 59.99034 | 24.04913 | 8678 ft | 253 kts | 55° |
| 2026-04-21 15:55 | 59.99973 | 24.07887 | 8543 ft | 253 kts | 55° |
| 2026-04-21 15:55 | 60.00893 | 24.10818 | 8427 ft | 245 kts | 55° |
| 2026-04-21 15:55 | 60.01791 | 24.13677 | 8297 ft | 242 kts | 55° |
| 2026-04-21 15:56 | 60.02684 | 24.16517 | 8172 ft | 240 kts | 55° |
| 2026-04-21 15:56 | 60.03574 | 24.19345 | 8041 ft | 240 kts | 55° |
| 2026-04-21 15:56 | 60.04460 | 24.22169 | 7923 ft | 240 kts | 55° |
| 2026-04-21 15:56 | 60.05344 | 24.24993 | 7798 ft | 239 kts | 55° |
| 2026-04-21 15:57 | 60.06229 | 24.27823 | 7547 ft | 241 kts | 55° |
| 2026-04-21 15:57 | 60.07113 | 24.30654 | 7205 ft | 239 kts | 55° |
| 2026-04-21 15:57 | 60.07995 | 24.33477 | 6783 ft | 239 kts | 55° |
| 2026-04-21 15:57 | 60.08876 | 24.36300 | 6399 ft | 238 kts | 55° |
| 2026-04-21 15:58 | 60.09446 | 24.38136 | 6294 ft | 230 kts | 55° |
| 2026-04-21 15:58 | 60.10267 | 24.40798 | 6161 ft | 219 kts | 55° |
| 2026-04-21 15:58 | 60.11051 | 24.43337 | 5947 ft | 211 kts | 54° |
| 2026-04-21 15:58 | 60.11823 | 24.45828 | 5653 ft | 209 kts | 54° |
| 2026-04-21 15:59 | 60.12583 | 24.48288 | 5332 ft | 206 kts | 54° |
| 2026-04-21 15:59 | 60.13326 | 24.50729 | 4844 ft | 205 kts | 53° |
| 2026-04-21 15:59 | 60.14181 | 24.53012 | 4335 ft | 204 kts | 46° |
| 2026-04-21 15:59 | 60.15115 | 24.55132 | 3879 ft | 202 kts | 44° |
| 2026-04-21 16:00 | 60.16070 | 24.57211 | 3733 ft | 203 kts | 44° |
| 2026-04-21 16:00 | 60.17004 | 24.59239 | 3615 ft | 190 kts | 44° |
| 2026-04-21 16:00 | 60.17886 | 24.61148 | 3533 ft | 185 kts | 44° |
| 2026-04-21 16:00 | 60.18759 | 24.63039 | 3466 ft | 184 kts | 44° |
| 2026-04-21 16:01 | 60.19632 | 24.64930 | 3407 ft | 185 kts | 44° |
| 2026-04-21 16:01 | 60.20503 | 24.66824 | 3214 ft | 183 kts | 44° |
| 2026-04-21 16:01 | 60.21346 | 24.68658 | 3005 ft | 172 kts | 44° |
| 2026-04-21 16:01 | 60.22143 | 24.70391 | 2790 ft | 168 kts | 43° |
| 2026-04-21 16:02 | 60.22940 | 24.72124 | 2572 ft | 169 kts | 44° |
| 2026-04-21 16:02 | 60.23736 | 24.73857 | 2352 ft | 173 kts | 45° |
| 2026-04-21 16:02 | 60.24558 | 24.75644 | 2103 ft | 175 kts | 47° |
| 2026-04-21 16:02 | 60.25381 | 24.77443 | 1869 ft | 174 kts | 49° |
| 2026-04-21 16:03 | 60.26186 | 24.79199 | 1640 ft | 164 kts | 51° |
| 2026-04-21 16:03 | 60.26934 | 24.80832 | 1428 ft | 153 kts | 47° |
| 2026-04-21 16:03 | 60.27637 | 24.82370 | 1227 ft | 144 kts | 45° |
| 2026-04-21 16:03 | 60.28306 | 24.83835 | 1035 ft | 141 kts | 45° |
| 2026-04-21 16:04 | 60.28956 | 24.85258 | 847 ft | 140 kts | 45° |
| 2026-04-21 16:04 | 60.29612 | 24.86697 | 668 ft | 140 kts | 45° |
| 2026-04-21 16:04 | 60.30274 | 24.88147 | 477 ft | 142 kts | 45° |
| 2026-04-21 16:04 | 60.30941 | 24.89611 | 296 ft | 141 kts | 45° |
| 2026-04-21 16:05 | 60.31599 | 24.91051 | 147 ft | 130 kts | 46° |
| 2026-04-21 16:05 | 60.32102 | 24.92164 | 158 ft | 83 kts | 47° |
| 2026-04-21 16:05 | 60.32378 | 24.92772 | 171 ft | 34 kts | 53° |
| 2026-04-21 16:05 | 60.32444 | 24.93137 | 175 ft | 19 kts | 73° |
| 2026-04-21 16:06 | 60.32475 | 24.93393 | 174 ft | 19 kts | 76° |
| 2026-04-21 16:06 | 60.32501 | 24.93613 | 172 ft | 16 kts | 77° |
| 2026-04-21 16:06 | 60.32526 | 24.93843 | 170 ft | 18 kts | 76° |
| 2026-04-21 16:06 | 60.32599 | 24.94048 | 171 ft | 18 kts | 48° |
| 2026-04-21 16:07 | 60.32684 | 24.94238 | 172 ft | 18 kts | 47° |
| 2026-04-21 16:07 | 60.32770 | 24.94427 | 173 ft | 18 kts | 47° |
| 2026-04-21 16:07 | 60.32857 | 24.94616 | 174 ft | 18 kts | 46° |
| 2026-04-21 16:07 | 60.32923 | 24.94772 | 176 ft | 14 kts | 65° |
| 2026-04-21 16:08 | 60.32771 | 24.94993 | 177 ft | 15 kts | 161° |
| 2026-04-21 16:08 | 60.32674 | 24.95056 | 180 ft | 14 kts | 162° |
| 2026-04-21 16:08 | 60.32579 | 24.95118 | 180 ft | 15 kts | 162° |
| 2026-04-21 16:09 | 60.32478 | 24.95184 | 179 ft | 16 kts | 162° |
| 2026-04-21 16:09 | 60.32363 | 24.95259 | 177 ft | 18 kts | 160° |
| 2026-04-21 16:09 | 60.32266 | 24.95408 | 175 ft | 16 kts | 138° |
| 2026-04-21 16:09 | 60.32175 | 24.95573 | 173 ft | 19 kts | 138° |
| 2026-04-21 16:10 | 60.32076 | 24.95755 | 174 ft | 19 kts | 137° |
| 2026-04-21 16:10 | 60.31983 | 24.95925 | 172 ft | 16 kts | 137° |
| 2026-04-21 16:10 | 60.31903 | 24.96073 | 167 ft | 14 kts | 137° |
| 2026-04-21 16:10 | 60.31850 | 24.96235 | 167 ft | 13 kts | 95° |
| 2026-04-21 16:11 | 60.31884 | 24.96386 | 167 ft | 12 kts | 50° |
| 2026-04-21 16:11 | 60.31930 | 24.96485 | 167 ft | 6 kts | 46° |
| 2026-04-21 16:11 | 60.31942 | 24.96529 | 167 ft | 3 kts | 88° |
| 2026-04-21 16:11 | 60.31937 | 24.96553 | 167 ft | 2 kts | 114° |
| 2026-04-21 16:12 | 60.31928 | 24.96577 | 167 ft | 2 kts | 129° |
| 2026-04-21 16:12 | 60.31923 | 24.96587 | 167 ft | 1 kts | 133° |
| 2026-04-21 16:12 | 60.31915 | 24.96605 | 167 ft | 1 kts | 135° |
| 2026-04-21 16:12 | 60.31909 | 24.96615 | 167 ft | 0 kts | 136° |
| 2026-04-21 16:13 | 60.31909 | 24.96617 | 167 ft | 0 kts | 136° |